createdAt,value
2018-09-23T00:01:14.888Z,8.33
2018-09-23T00:03:43.370Z,4.73
2018-09-23T00:06:11.959Z,7.33
2018-09-23T00:08:40.465Z,9.87
2018-09-23T00:11:09.010Z,9.97
2018-09-23T00:13:37.506Z,9.07
2018-09-23T00:16:06.071Z,9.07
2018-09-23T00:18:34.602Z,2.80
2018-09-23T00:21:03.112Z,4.93
2018-09-23T00:23:31.620Z,5.97
2018-09-23T00:26:00.375Z,12.27
2018-09-23T00:28:28.886Z,10.00
2018-09-23T00:30:57.376Z,7.60
2018-09-23T00:33:25.884Z,9.17
2018-09-23T00:35:54.366Z,4.97
2018-09-23T00:38:22.920Z,3.60
2018-09-23T00:40:51.426Z,5.17
2018-09-23T00:43:19.965Z,6.80
2018-09-23T00:45:48.441Z,6.27
2018-09-23T00:48:16.942Z,8.17
2018-09-23T00:50:45.436Z,7.70
2018-09-23T00:53:14.973Z,7.63
2018-09-23T00:55:43.477Z,9.63
2018-09-23T00:58:11.986Z,10.87
2018-09-23T01:00:40.483Z,11.50
2018-09-23T01:03:09.010Z,9.93
2018-09-23T01:05:37.518Z,18.40
2018-09-23T01:08:06.236Z,2.70
2018-09-23T01:10:34.747Z,6.13
2018-09-23T01:13:03.284Z,3.77
2018-09-23T01:15:31.784Z,8.23
2018-09-23T01:18:00.298Z,7.13
2018-09-23T01:20:28.836Z,10.03
2018-09-23T01:22:57.362Z,13.40
2018-09-23T01:25:25.894Z,4.93
2018-09-23T01:27:54.431Z,8.90
2018-09-23T01:30:22.980Z,6.33
2018-09-23T01:32:51.563Z,4.60
2018-09-23T01:35:20.080Z,6.67
2018-09-23T01:37:48.558Z,9.03
2018-09-23T01:40:17.186Z,9.43
2018-09-23T01:42:45.701Z,7.33
2018-09-23T01:45:14.207Z,4.90
2018-09-23T01:47:42.691Z,4.97
2018-09-23T01:50:11.186Z,13.10
2018-09-23T01:52:39.722Z,12.60
2018-09-23T01:55:08.254Z,10.77
2018-09-23T01:57:36.746Z,10.33
2018-09-23T02:00:05.494Z,12.33
2018-09-23T02:02:34.014Z,2.57
2018-09-23T02:05:02.535Z,6.13
2018-09-23T02:07:31.022Z,5.90
2018-09-23T02:09:59.527Z,3.23
2018-09-23T02:12:28.042Z,7.37
2018-09-23T02:14:56.558Z,3.70
2018-09-23T02:17:25.058Z,6.30
2018-09-23T02:19:53.695Z,9.00
2018-09-23T02:22:22.266Z,7.30
2018-09-23T02:24:50.750Z,4.00
2018-09-23T02:27:19.268Z,5.10
2018-09-23T02:29:47.761Z,5.87
2018-09-23T02:32:16.325Z,4.70
2018-09-23T02:34:44.851Z,5.43
2018-09-23T02:37:13.390Z,8.33
2018-09-23T02:39:41.924Z,8.27
2018-09-23T02:42:10.575Z,11.63
2018-09-23T02:44:39.122Z,7.27
2018-09-23T02:47:07.683Z,6.10
2018-09-23T02:49:36.373Z,5.43
2018-09-23T02:52:05.043Z,15.03
2018-09-23T02:54:33.623Z,2.90
2018-09-23T02:57:02.190Z,3.03
2018-09-23T02:59:30.732Z,8.97
2018-09-23T03:01:59.323Z,5.83
2018-09-23T03:04:27.898Z,8.00
2018-09-23T03:06:56.478Z,2.93
2018-09-23T03:09:25.022Z,5.10
2018-09-23T03:11:53.582Z,8.83
2018-09-23T03:14:22.137Z,5.40
2018-09-23T03:16:50.754Z,6.27
2018-09-23T03:19:19.398Z,10.03
2018-09-23T03:21:47.927Z,7.67
2018-09-23T03:24:16.500Z,6.40
2018-09-23T03:26:45.093Z,10.47
2018-09-23T03:29:13.662Z,4.87
2018-09-23T03:31:42.203Z,10.63
2018-09-23T03:34:10.757Z,11.77
2018-09-23T03:36:39.326Z,9.20
2018-09-23T03:39:08.276Z,7.43
2018-09-23T03:41:36.818Z,5.13
2018-09-23T03:44:05.648Z,5.93
2018-09-23T03:46:34.193Z,7.90
2018-09-23T03:49:02.750Z,7.90
2018-09-23T03:51:31.311Z,7.17
2018-09-23T03:53:59.986Z,5.83
2018-09-23T03:56:28.564Z,8.23
2018-09-23T03:58:57.110Z,10.50
2018-09-23T04:01:25.691Z,3.60
2018-09-23T04:03:54.249Z,11.80
2018-09-23T04:06:22.836Z,8.53
2018-09-23T04:08:51.441Z,6.50
2018-09-23T04:11:20.088Z,6.87
2018-09-23T04:13:48.630Z,8.50
2018-09-23T04:16:18.313Z,3.40
2018-09-23T04:18:47.049Z,2.77
2018-09-23T04:21:15.725Z,6.90
2018-09-23T04:23:44.321Z,3.23
2018-09-23T04:26:12.892Z,3.27
2018-09-23T04:28:41.457Z,4.90
2018-09-23T04:31:10.014Z,5.67
2018-09-23T04:33:38.607Z,5.27
2018-09-23T04:36:07.161Z,3.60
2018-09-23T04:38:35.777Z,2.33
2018-09-23T04:41:04.312Z,5.63
2018-09-23T04:43:32.830Z,4.07
2018-09-23T04:46:01.383Z,2.47
2018-09-23T04:48:30.049Z,4.33
2018-09-23T04:50:58.741Z,1.63
2018-09-23T04:53:27.391Z,1.87
2018-09-23T04:55:55.983Z,2.40
2018-09-23T04:58:24.526Z,5.47
2018-09-23T05:00:53.101Z,3.60
2018-09-23T05:03:21.685Z,2.17
2018-09-23T05:05:50.273Z,2.57
2018-09-23T05:08:18.810Z,6.00
2018-09-23T05:10:47.414Z,2.67
2018-09-23T05:13:16.062Z,3.40
2018-09-23T05:15:44.720Z,2.20
2018-09-23T05:18:13.279Z,1.33
2018-09-23T05:20:41.881Z,1.30
2018-09-23T05:23:10.477Z,2.17
2018-09-23T05:25:39.105Z,1.30
2018-09-23T05:28:07.702Z,1.30
2018-09-23T05:30:36.392Z,1.30
2018-09-23T05:33:05.008Z,1.50
2018-09-23T05:35:33.611Z,4.27
2018-09-23T05:38:02.194Z,1.23
2018-09-23T05:40:30.791Z,1.80
2018-09-23T05:42:59.442Z,1.67
2018-09-23T05:45:28.033Z,2.47
2018-09-23T05:47:56.632Z,1.63
2018-09-23T05:50:25.202Z,1.67
2018-09-23T05:52:53.810Z,1.13
2018-09-23T05:55:22.367Z,1.70
2018-09-23T05:57:50.989Z,1.33
2018-09-23T06:00:19.660Z,4.60
2018-09-23T06:02:48.266Z,2.47
2018-09-23T06:05:16.844Z,1.97
2018-09-23T06:07:45.435Z,2.03
2018-09-23T06:10:14.018Z,1.73
2018-09-23T06:12:42.606Z,1.43
2018-09-23T06:15:11.184Z,5.10
2018-09-23T06:17:39.808Z,1.53
2018-09-23T06:20:08.401Z,2.10
2018-09-23T06:22:37.060Z,3.20
2018-09-23T06:25:05.817Z,5.77
2018-09-23T06:27:34.349Z,3.03
2018-09-23T06:30:02.943Z,2.20
2018-09-23T06:32:31.521Z,2.90
2018-09-23T06:35:00.098Z,1.10
2018-09-23T06:37:28.699Z,1.30
2018-09-23T06:39:57.310Z,1.50
2018-09-23T06:42:25.866Z,3.63
2018-09-23T06:44:54.477Z,1.10
2018-09-23T06:47:23.296Z,1.63
2018-09-23T06:49:51.918Z,1.03
2018-09-23T06:52:20.542Z,2.53
2018-09-23T06:54:49.153Z,2.20
2018-09-23T06:57:17.839Z,1.53
2018-09-23T06:59:46.430Z,1.40
2018-09-23T07:02:15.073Z,1.20
2018-09-23T07:04:43.702Z,1.33
2018-09-23T07:07:12.326Z,3.43
2018-09-23T07:09:40.902Z,0.90
2018-09-23T07:12:09.534Z,1.33
2018-09-23T07:14:38.165Z,1.20
2018-09-23T07:17:06.867Z,1.20
2018-09-23T07:19:35.522Z,1.17
2018-09-23T07:22:04.163Z,1.37
2018-09-23T07:24:32.714Z,4.67
2018-09-23T07:27:01.350Z,1.30
2018-09-23T07:29:29.960Z,1.87
2018-09-23T07:31:58.553Z,2.57
2018-09-23T07:34:27.228Z,1.60
2018-09-23T07:36:55.838Z,1.70
2018-09-23T07:39:24.366Z,1.60
2018-09-23T07:41:52.970Z,4.63
2018-09-23T07:44:21.633Z,1.50
2018-09-23T07:46:50.270Z,1.50
2018-09-23T07:49:18.878Z,2.33
2018-09-23T07:51:47.502Z,2.23
2018-09-23T07:54:16.069Z,2.13
2018-09-23T07:56:44.704Z,3.27
2018-09-23T07:59:13.315Z,2.70
2018-09-23T08:01:41.975Z,5.07
2018-09-23T08:04:10.735Z,1.80
2018-09-23T08:06:39.354Z,2.50
2018-09-23T08:09:08.929Z,2.30
2018-09-23T08:11:38.056Z,2.00
2018-09-23T08:14:07.158Z,4.23
2018-09-23T08:16:35.502Z,3.10
2018-09-23T08:19:04.151Z,7.93
2018-09-23T08:21:32.754Z,3.50
2018-09-23T08:24:01.365Z,1.70
2018-09-23T08:26:29.962Z,2.20
2018-09-23T08:28:58.579Z,4.47
2018-09-23T08:31:27.184Z,3.37
2018-09-23T08:33:55.926Z,2.03
2018-09-23T08:36:24.535Z,3.47
2018-09-23T08:38:53.238Z,2.93
2018-09-23T08:41:21.807Z,4.67
2018-09-23T08:43:50.454Z,3.70
2018-09-23T08:46:19.100Z,3.27
2018-09-23T08:48:47.777Z,2.70
2018-09-23T08:51:16.460Z,4.33
2018-09-23T08:53:45.050Z,3.50
2018-09-23T08:56:13.613Z,5.37
2018-09-23T08:58:42.213Z,8.60
2018-09-23T09:01:10.816Z,6.53
2018-09-23T09:03:39.489Z,8.47
2018-09-23T09:06:08.418Z,10.90
2018-09-23T09:08:37.228Z,7.00
2018-09-23T09:11:06.030Z,13.63
2018-09-23T09:13:35.453Z,6.50
2018-09-23T09:16:04.068Z,5.80
2018-09-23T09:18:32.752Z,6.63
2018-09-23T09:21:01.415Z,10.33
2018-09-23T09:23:30.146Z,5.33
2018-09-23T09:25:58.725Z,4.93
2018-09-23T09:28:27.356Z,6.73
2018-09-23T09:30:56.058Z,8.57
2018-09-23T09:33:24.617Z,4.23
2018-09-23T09:35:53.193Z,9.50
2018-09-23T09:38:21.837Z,4.43
2018-09-23T09:40:50.463Z,9.03
2018-09-23T09:43:19.100Z,5.57
2018-09-23T09:45:47.761Z,10.20
2018-09-23T09:48:16.344Z,3.20
2018-09-23T09:50:45.011Z,3.63
2018-09-23T09:53:13.663Z,4.63
2018-09-23T09:55:42.239Z,4.00
2018-09-23T09:58:10.838Z,7.60
2018-09-23T10:00:39.453Z,5.27
2018-09-23T10:03:08.033Z,7.80
2018-09-23T10:05:36.617Z,8.63
2018-09-23T10:08:05.193Z,6.83
2018-09-23T10:10:33.789Z,5.90
2018-09-23T10:13:02.350Z,6.40
2018-09-23T10:15:30.930Z,3.97
2018-09-23T10:17:59.503Z,4.30
2018-09-23T10:20:28.090Z,7.53
2018-09-23T10:22:56.763Z,3.07
2018-09-23T10:25:25.413Z,1.83
2018-09-23T10:27:54.083Z,6.70
2018-09-23T10:30:22.769Z,3.30
2018-09-23T10:32:51.456Z,6.40
2018-09-23T10:35:20.097Z,2.30
2018-09-23T10:37:48.803Z,10.20
2018-09-23T10:40:17.460Z,5.37
2018-09-23T10:42:46.115Z,1.73
2018-09-23T10:45:14.814Z,4.77
2018-09-23T10:47:43.422Z,2.13
2018-09-23T10:50:12.077Z,3.00
2018-09-23T10:52:40.797Z,3.43
2018-09-23T10:55:09.474Z,3.00
2018-09-23T10:57:38.136Z,2.07
2018-09-23T11:00:06.814Z,1.93
2018-09-23T11:02:35.464Z,3.37
2018-09-23T11:05:04.079Z,2.07
2018-09-23T11:07:32.859Z,5.43
2018-09-23T11:10:02.454Z,1.40
2018-09-23T11:12:31.071Z,2.07
2018-09-23T11:14:59.704Z,4.63
2018-09-23T11:17:28.358Z,3.43
2018-09-23T11:19:57.002Z,1.77
2018-09-23T11:22:25.707Z,1.30
2018-09-23T11:24:55.432Z,3.80
2018-09-23T11:27:24.130Z,3.07
2018-09-23T11:29:52.766Z,4.90
2018-09-23T11:32:21.466Z,1.17
2018-09-23T11:34:50.234Z,1.43
2018-09-23T11:37:18.806Z,1.23
2018-09-23T11:39:47.449Z,4.63
2018-09-23T11:42:16.053Z,1.23
2018-09-23T11:44:44.654Z,2.33
2018-09-23T11:47:13.275Z,1.93
2018-09-23T11:49:41.856Z,1.33
2018-09-23T11:52:10.570Z,3.80
2018-09-23T11:54:39.261Z,1.13
2018-09-23T11:57:07.931Z,2.10
2018-09-23T11:59:36.652Z,1.90
2018-09-23T12:02:05.853Z,2.60
2018-09-23T12:04:34.609Z,2.60
2018-09-23T12:07:03.219Z,1.20
2018-09-23T12:09:31.810Z,3.50
2018-09-23T12:12:01.542Z,1.00
2018-09-23T12:14:30.219Z,1.00
2018-09-23T12:16:58.793Z,3.50
2018-09-23T12:19:27.437Z,2.90
2018-09-23T12:21:56.046Z,2.23
2018-09-23T12:24:24.698Z,2.80
2018-09-23T12:26:53.370Z,0.90
2018-09-23T12:29:22.073Z,2.97
2018-09-23T12:31:50.691Z,5.60
2018-09-23T12:34:19.290Z,6.53
2018-09-23T12:36:47.923Z,3.03
2018-09-23T12:39:16.524Z,1.80
2018-09-23T12:41:45.184Z,0.90
2018-09-23T12:44:13.777Z,0.73
2018-09-23T12:46:42.395Z,3.23
2018-09-23T12:49:11.511Z,0.90
2018-09-23T12:51:40.863Z,1.93
2018-09-23T12:54:10.776Z,1.63
2018-09-23T12:56:40.996Z,1.87
2018-09-23T12:59:11.492Z,3.83
2018-09-23T13:01:40.206Z,0.80
2018-09-23T13:04:08.839Z,0.73
2018-09-23T13:06:37.503Z,1.40
2018-09-23T13:09:07.554Z,1.23
2018-09-23T13:11:37.479Z,5.90
2018-09-23T13:14:07.682Z,0.80
2018-09-23T13:16:36.394Z,3.03
2018-09-23T13:19:05.040Z,5.30
2018-09-23T13:21:33.634Z,1.30
2018-09-23T13:24:02.231Z,2.27
2018-09-23T13:26:30.973Z,7.33
2018-09-23T13:28:59.596Z,3.07
2018-09-23T13:31:28.210Z,5.80
2018-09-23T13:33:56.811Z,2.27
2018-09-23T13:36:25.508Z,4.27
2018-09-23T13:38:54.157Z,3.63
2018-09-23T13:41:22.734Z,6.30
2018-09-23T13:43:51.462Z,2.30
2018-09-23T13:46:20.105Z,4.90
2018-09-23T13:48:48.866Z,12.30
2018-09-23T13:51:17.550Z,4.23
2018-09-23T13:53:46.171Z,2.90
2018-09-23T13:56:14.757Z,6.30
2018-09-23T13:58:43.458Z,2.40
2018-09-23T14:01:12.114Z,2.33
2018-09-23T14:03:40.877Z,1.13
2018-09-23T14:06:09.471Z,2.97
2018-09-23T14:08:38.059Z,4.60
2018-09-23T14:11:06.686Z,2.03
2018-09-23T14:13:35.329Z,1.33
2018-09-23T14:16:04.000Z,10.77
2018-09-23T14:18:32.735Z,0.80
2018-09-23T14:21:01.412Z,1.97
2018-09-23T14:23:30.534Z,3.23
2018-09-23T14:25:59.146Z,1.47
2018-09-23T14:28:27.918Z,0.70
2018-09-23T14:30:56.684Z,1.00
2018-09-23T14:33:25.347Z,6.07
2018-09-23T14:35:54.074Z,0.90
2018-09-23T14:38:22.716Z,1.33
2018-09-23T14:40:52.337Z,2.60
2018-09-23T14:43:21.175Z,1.00
2018-09-23T14:45:49.923Z,2.20
2018-09-23T14:48:18.606Z,0.90
2018-09-23T14:50:47.232Z,4.93
2018-09-23T14:53:15.858Z,0.70
2018-09-23T14:55:44.526Z,3.13
2018-09-23T14:58:13.142Z,8.23
2018-09-23T15:00:41.822Z,3.53
2018-09-23T15:03:10.471Z,3.67
2018-09-23T15:05:39.279Z,2.90
2018-09-23T15:08:08.044Z,1.80
2018-09-23T15:10:36.842Z,0.67
2018-09-23T15:13:05.499Z,2.80
2018-09-23T15:15:34.236Z,1.10
2018-09-23T15:18:05.442Z,2.93
2018-09-23T15:20:34.106Z,4.77
2018-09-23T15:23:02.709Z,8.47
2018-09-23T15:25:31.365Z,31.00
2018-09-23T15:28:00.398Z,16.00
2018-09-23T15:30:28.953Z,9.80
2018-09-23T15:32:57.474Z,8.37
2018-09-23T15:35:26.055Z,9.33
2018-09-23T15:37:54.635Z,15.17
2018-09-23T15:40:23.135Z,3.13
2018-09-23T15:42:51.701Z,5.93
2018-09-23T15:45:21.106Z,3.90
2018-09-23T15:47:49.730Z,2.30
2018-09-23T15:50:18.259Z,5.07
2018-09-23T15:52:46.880Z,4.20
2018-09-23T16:02:12.696Z,1.63
2018-09-23T16:04:41.250Z,1.63
2018-09-23T16:07:09.810Z,2.77
2018-09-23T16:09:38.374Z,4.10
2018-09-23T16:12:06.962Z,7.80
2018-09-23T16:14:35.530Z,1.67
2018-09-23T16:17:04.184Z,2.90
2018-09-23T16:19:32.763Z,6.67
2018-09-23T16:22:01.342Z,1.13
2018-09-23T16:24:29.946Z,1.00
2018-09-23T16:26:58.586Z,1.10
2018-09-23T16:29:27.144Z,1.20
2018-09-23T16:31:55.729Z,3.57
2018-09-23T16:34:24.337Z,1.57
2018-09-23T16:36:52.879Z,1.10
2018-09-23T16:39:21.501Z,2.30
2018-09-23T16:41:50.069Z,1.27
2018-09-23T16:44:18.654Z,3.03
2018-09-23T16:46:47.202Z,1.00
2018-09-23T16:49:15.861Z,1.47
2018-09-23T16:51:44.532Z,8.50
2018-09-23T16:54:13.171Z,1.17
2018-09-23T16:56:41.837Z,1.23
2018-09-23T16:59:10.514Z,1.03
2018-09-23T17:01:39.144Z,0.70
2018-09-23T17:04:07.748Z,1.63
2018-09-23T17:06:36.367Z,1.37
2018-09-23T17:09:07.246Z,2.20
2018-09-23T17:11:36.002Z,0.90
2018-09-23T17:14:04.634Z,0.80
2018-09-23T17:16:33.339Z,1.47
2018-09-23T17:19:02.154Z,3.90
2018-09-23T17:21:30.759Z,1.00
2018-09-23T17:23:59.367Z,1.80
2018-09-23T17:26:28.079Z,1.70
2018-09-23T17:28:56.687Z,0.80
2018-09-23T17:31:25.290Z,2.10
2018-09-23T17:33:53.905Z,1.10
2018-09-23T17:36:22.577Z,0.93
2018-09-23T17:38:51.183Z,1.90
2018-09-23T17:41:19.781Z,0.80
2018-09-23T17:43:48.349Z,0.70
2018-09-23T17:46:16.974Z,1.10
2018-09-23T17:48:45.596Z,2.00
2018-09-23T17:51:14.221Z,0.73
2018-09-23T17:53:42.799Z,0.80
2018-09-23T17:56:11.433Z,0.80
2018-09-23T17:58:40.036Z,1.13
2018-09-23T18:01:08.684Z,1.80
2018-09-23T18:03:37.427Z,0.70
2018-09-23T18:06:06.170Z,0.70
2018-09-23T18:08:34.739Z,0.60
2018-09-23T18:11:03.354Z,0.70
2018-09-23T18:13:34.065Z,0.90
2018-09-23T18:16:02.673Z,2.60
2018-09-23T18:18:31.282Z,0.73
2018-09-23T18:20:59.895Z,5.40
2018-09-23T18:23:28.488Z,1.23
2018-09-23T18:25:58.223Z,1.23
2018-09-23T18:28:27.037Z,0.83
2018-09-23T18:30:55.686Z,0.70
2018-09-23T18:33:24.318Z,0.60
2018-09-23T18:35:52.876Z,0.70
2018-09-23T18:38:21.456Z,0.60
2018-09-23T18:40:50.195Z,0.60
2018-09-23T18:43:18.774Z,0.83
2018-09-23T18:45:47.426Z,0.60
2018-09-23T18:48:16.018Z,0.60
2018-09-23T18:50:44.594Z,0.70
2018-09-23T18:53:18.448Z,0.70
2018-09-23T18:55:48.029Z,0.70
2018-09-23T18:58:16.601Z,0.70
2018-09-23T19:00:45.167Z,2.83
2018-09-23T19:03:13.840Z,1.43
2018-09-23T19:05:42.428Z,0.60
2018-09-23T19:08:11.074Z,0.60
2018-09-23T19:10:39.665Z,0.60
2018-09-23T19:13:13.478Z,0.60
2018-09-23T19:15:42.072Z,0.70
2018-09-23T19:18:10.669Z,0.80
2018-09-23T19:20:39.244Z,2.50
2018-09-23T19:23:12.650Z,3.67
2018-09-23T19:25:41.407Z,0.73
2018-09-23T19:28:09.993Z,1.07
2018-09-23T19:30:38.623Z,0.70
2018-09-23T19:33:07.293Z,1.13
2018-09-23T19:35:35.886Z,1.23
2018-09-23T19:38:04.485Z,0.60
2018-09-23T19:40:33.091Z,0.90
2018-09-23T19:43:01.721Z,0.63
2018-09-23T19:45:30.270Z,0.60
2018-09-23T19:47:58.822Z,0.70
2018-09-23T19:50:27.509Z,1.10
2018-09-23T19:52:56.077Z,0.67
2018-09-23T19:55:24.665Z,0.70
2018-09-23T19:57:53.234Z,0.60
2018-09-23T20:00:21.815Z,0.60
2018-09-23T20:02:50.418Z,0.77
2018-09-23T20:05:19.009Z,1.53
2018-09-23T20:07:47.549Z,0.70
2018-09-23T20:10:19.544Z,0.67
2018-09-23T20:12:48.219Z,4.97
2018-09-23T20:15:17.998Z,0.60
2018-09-23T20:17:47.180Z,0.70
2018-09-23T20:20:15.873Z,0.60
2018-09-23T20:22:44.493Z,0.80
2018-09-23T20:25:13.079Z,0.80
2018-09-23T20:27:41.725Z,1.47
2018-09-23T20:30:10.346Z,0.73
2018-09-23T20:32:38.938Z,0.70
2018-09-23T20:35:08.183Z,0.70
2018-09-23T20:37:37.794Z,0.80
2018-09-23T20:40:06.474Z,0.73
2018-09-23T20:42:35.122Z,0.83
2018-09-23T20:45:03.750Z,0.60
2018-09-23T20:47:32.341Z,0.83
2018-09-23T20:50:00.905Z,1.20
2018-09-23T20:52:29.569Z,0.70
2018-09-23T20:54:58.131Z,0.70
2018-09-23T20:57:26.698Z,0.60
2018-09-23T20:59:55.245Z,1.43
2018-09-23T21:02:23.826Z,1.63
2018-09-23T21:04:52.482Z,0.83
2018-09-23T21:07:21.145Z,0.70
2018-09-23T21:09:49.694Z,1.07
2018-09-23T21:12:18.322Z,0.70
2018-09-23T21:14:46.858Z,0.90
2018-09-23T21:17:15.426Z,0.60
2018-09-23T21:19:43.985Z,0.70
2018-09-23T21:22:12.649Z,2.63
2018-09-23T21:24:41.209Z,3.90
2018-09-23T21:27:09.821Z,0.93
2018-09-23T21:29:38.434Z,1.67
2018-09-23T21:32:07.028Z,0.83
2018-09-23T21:34:35.549Z,1.40
2018-09-23T21:37:04.139Z,0.87
2018-09-23T21:39:32.729Z,1.30
2018-09-23T21:42:01.254Z,0.97
2018-09-23T21:44:29.821Z,0.90
2018-09-23T21:46:58.373Z,1.33
2018-09-23T21:49:26.969Z,1.10
2018-09-23T21:51:55.493Z,1.20
2018-09-23T21:54:24.061Z,0.70
2018-09-23T21:56:52.614Z,1.10
2018-09-23T21:59:21.205Z,5.43
2018-09-23T22:01:49.866Z,1.33
2018-09-23T22:04:18.427Z,1.00
2018-09-23T22:06:46.989Z,1.17
2018-09-23T22:09:15.573Z,1.07
2018-09-23T22:11:44.136Z,1.37
2018-09-23T22:14:12.734Z,0.80
2018-09-23T22:16:41.291Z,0.80
2018-09-23T22:19:09.837Z,0.70
2018-09-23T22:21:38.428Z,1.40
2018-09-23T22:24:07.267Z,1.53
2018-09-23T22:26:35.829Z,5.80
2018-09-23T22:29:04.409Z,2.00
2018-09-23T22:31:32.941Z,1.10
2018-09-23T22:34:01.623Z,1.67
2018-09-23T22:36:30.185Z,1.03
2018-09-23T22:38:58.807Z,0.93
2018-09-23T22:41:27.317Z,0.70
2018-09-23T22:43:55.895Z,0.90
2018-09-23T22:46:24.470Z,0.97
2018-09-23T22:48:53.055Z,0.80
2018-09-23T22:51:21.694Z,1.00
2018-09-23T22:53:50.255Z,0.80
2018-09-23T22:56:18.826Z,0.70
2018-09-23T22:58:47.431Z,1.93
2018-09-23T23:01:16.002Z,0.80
2018-09-23T23:03:44.585Z,0.70
2018-09-23T23:06:13.163Z,2.30
2018-09-23T23:08:41.730Z,1.87
2018-09-23T23:11:10.305Z,0.77
2018-09-23T23:13:38.893Z,0.80
2018-09-23T23:16:07.446Z,1.67
2018-09-23T23:18:36.113Z,2.83
2018-09-23T23:21:04.721Z,0.97
2018-09-23T23:23:33.261Z,4.60
2018-09-23T23:26:01.791Z,1.00
2018-09-23T23:28:30.360Z,1.97
2018-09-23T23:30:59.005Z,1.30
2018-09-23T23:33:27.576Z,0.70
2018-09-23T23:35:56.149Z,0.70
2018-09-23T23:38:24.692Z,3.63
2018-09-23T23:40:53.331Z,1.27
2018-09-23T23:43:21.876Z,1.87
2018-09-23T23:45:50.661Z,0.70
2018-09-23T23:48:19.222Z,2.30
2018-09-23T23:50:47.794Z,1.33
2018-09-23T23:53:16.356Z,3.17
2018-09-23T23:55:44.889Z,0.97
2018-09-23T23:58:13.458Z,1.17
